Floydada, Texas
Current Conditions -  °F | °C
As of 10:35 AM on Saturday 22 Nov 2014 (Local Time) from KPVW Reporting Station
Thunderstorm Thunderstorm  
Wind Chill: 57°   Ceiling: Unl
Heat Index: 57°   Visibility: 10mi
Dew Point: 50°   Wind: 9mph
Humidity: 77%   Direction: 240°WSW
Pressure: 29.95"   Gusts: NA
Location:  33.98°N, 101.34°W
Report Text: KPVW 221635Z AUTO 24008KT 10SM VCTS CLR 14/10 A2995 RMK AO2 LTG DSNT E THRU S T01410101
Loading
Personal Weather Stations






























Interactive Weather Map New forecast layout! Learn more

10-Day Weather Forecast

Advertisements
Track Severe Weather on mobile